Weather reports worldwide

Advertisment
Cairngorm, United Kingdom (3065): temperature & dewpoint: 23.07.2017 12:00:00 - 29.07.2017 12:00:00 (BST)Cairngorm, United Kingdom (3065): wind speed & gusts: 23.07.2017 12:00:00 - 29.07.2017 12:00:00 (BST)Cairngorm, United Kingdom (3065): wind direction: 23.07.2017 12:00:00 - 29.07.2017 12:00:00 (BST)Cairngorm, United Kingdom (3065): visibility: 23.07.2017 12:00:00 - 29.07.2017 12:00:00 (BST)
Date & Time tt [°C] td [°C] ff [km/h] ff [kn] fx [km/h] fx [kn] dd vv [km]
29.07.2017 12:00:00 5,1 5,1 52 28 70 38 SW -
29.07.2017 11:00:00 5,2 5,0 57 31 78 42 WSW -
29.07.2017 10:00:00 5,2 5,2 34 18 72 39 SW -
29.07.2017 09:00:00 4,8 4,8 46 25 80 43 SW -
29.07.2017 08:00:00 4,7 4,7 41 22 81 44 SW -
29.07.2017 07:00:00 4,6 4,6 52 28 81 44 SW -
29.07.2017 06:00:00 4,5 4,5 54 29 93 50 SW -
29.07.2017 05:00:00 4,4 4,2 52 28 94 51 SSW -
29.07.2017 04:00:00 4,5 4,5 50 27 67 36 SSW -
29.07.2017 03:00:00 4,5 4,5 46 25 74 40 SSW -
29.07.2017 02:00:00 4,8 4,8 54 29 80 43 SW -
29.07.2017 01:00:00 4,4 4,4 34 18 76 41 SW -
29.07.2017 00:00:00 4,5 4,5 46 25 70 38 SW -
28.07.2017 23:00:00 4,9 3,9 50 27 63 34 SW -
28.07.2017 22:00:00 5,5 4,9 39 21 54 29 SW -
28.07.2017 21:00:00 5,5 4,8 42 23 57 31 SW -
28.07.2017 20:00:00 5,5 5,5 28 15 50 27 SSW -
28.07.2017 19:00:00 6,0 4,9 42 23 67 36 SSW -
28.07.2017 18:00:00 6,2 5,5 44 24 59 32 SSW -
28.07.2017 17:00:00 6,9 4,7 37 20 61 33 SW -
28.07.2017 16:00:00 6,1 4,8 44 24 65 35 SW -
28.07.2017 15:00:00 6,7 4,3 44 24 65 35 SW -
28.07.2017 14:00:00 6,7 4,0 48 26 65 35 SW -
28.07.2017 13:00:00 6,7 4,8 46 25 63 34 SW -
28.07.2017 12:00:00 5,9 4,8 34 18 57 31 SW -
28.07.2017 11:00:00 5,3 5,3 37 20 68 37 SSW -
28.07.2017 10:00:00 5,7 5,7 52 28 67 36 SSW -
28.07.2017 09:00:00 5,0 5,0 48 26 78 42 S -
28.07.2017 08:00:00 4,8 4,8 59 32 76 41 S -
28.07.2017 07:00:00 4,4 4,4 42 23 63 34 S -
28.07.2017 06:00:00 4,1 4,1 52 28 80 43 S -
28.07.2017 05:00:00 4,0 4,0 52 28 67 36 S -
28.07.2017 04:00:00 4,0 4,0 52 28 65 35 S -
28.07.2017 03:00:00 4,2 4,2 48 26 63 34 S -
28.07.2017 02:00:00 4,3 4,3 57 31 76 41 S -
28.07.2017 01:00:00 4,3 4,3 59 32 68 37 S -
28.07.2017 00:00:00 4,3 4,3 50 27 61 33 S -
27.07.2017 23:00:00 5,6 5,6 46 25 57 31 S 0,3
27.07.2017 22:00:00 5,8 5,8 42 23 57 31 S -
27.07.2017 21:00:00 6,1 5,2 41 22 50 27 S -
27.07.2017 20:00:00 6,4 4,2 29 16 - - SSW -
27.07.2017 19:00:00 6,7 5,5 31 17 52 28 SSW -
27.07.2017 18:00:00 6,6 4,0 37 20 52 28 SW -
27.07.2017 17:00:00 6,6 4,8 37 20 55 30 SW -
27.07.2017 16:00:00 6,4 4,7 37 20 61 33 SSW -
27.07.2017 15:00:00 6,2 4,9 39 21 55 30 SSW -
27.07.2017 14:00:00 6,1 5,1 37 20 52 28 S -
27.07.2017 13:00:00 6,0 4,1 42 23 55 30 SSW -
27.07.2017 12:00:00 5,6 3,6 37 20 70 38 SSW -
27.07.2017 11:00:00 5,2 4,8 46 25 74 40 SSW -
27.07.2017 10:00:00 5,0 3,2 41 22 70 38 SW -
27.07.2017 09:00:00 4,8 3,8 41 22 61 33 SW -
27.07.2017 08:00:00 4,4 4,2 39 21 61 33 SW -
27.07.2017 07:00:00 4,2 4,0 42 23 76 41 SW -
27.07.2017 06:00:00 4,7 3,1 48 26 98 53 WSW -
27.07.2017 05:00:00 4,8 2,8 65 35 96 52 W -
27.07.2017 04:00:00 5,2 3,3 57 31 83 45 WSW -
27.07.2017 03:00:00 5,2 3,9 42 23 70 38 WSW -
27.07.2017 02:00:00 5,2 5,2 54 29 91 49 WSW -
27.07.2017 01:00:00 5,6 4,6 55 30 87 47 WSW -
27.07.2017 00:00:00 5,8 3,2 46 25 80 43 WSW -
26.07.2017 23:00:00 5,9 5,2 42 23 76 41 WSW -
26.07.2017 22:00:00 5,6 5,1 42 23 72 39 WSW -
26.07.2017 21:00:00 5,7 5,1 55 30 81 44 W -
26.07.2017 20:00:00 6,4 6,1 39 21 83 45 WSW -
26.07.2017 19:00:00 7,1 5,8 42 23 78 42 W -
26.07.2017 18:00:00 7,8 6,2 44 24 65 35 WSW -
26.07.2017 17:00:00 8,4 7,3 39 21 65 35 W -
26.07.2017 16:00:00 9,6 7,2 42 23 65 35 WSW -
26.07.2017 15:00:00 9,1 8,8 28 15 59 32 SW -
26.07.2017 14:00:00 8,8 8,8 35 19 78 42 SSE -
26.07.2017 13:00:00 8,4 8,4 76 41 122 66 SSE -
26.07.2017 12:00:00 8,0 8,0 102 55 115 62 SSE -
26.07.2017 11:00:00 7,8 7,8 78 42 96 52 SSE -
26.07.2017 10:00:00 7,4 7,4 81 44 98 53 SSE 0,3
26.07.2017 09:00:00 7,2 7,2 76 41 96 52 SSE -
26.07.2017 08:00:00 7,2 7,2 59 32 76 41 SSE -
26.07.2017 07:00:00 7,1 7,1 50 27 68 37 SSE -
26.07.2017 06:00:00 7,1 7,1 42 23 59 32 S -
26.07.2017 05:00:00 7,6 7,6 48 26 59 32 SSE -
26.07.2017 04:00:00 7,2 7,2 37 20 52 28 S -
26.07.2017 03:00:00 7,2 7,2 34 18 48 26 S -
26.07.2017 02:00:00 7,5 7,5 35 19 - - S -
26.07.2017 01:00:00 7,8 7,8 31 17 46 25 S -
26.07.2017 00:00:00 7,9 7,9 39 21 48 26 S -
25.07.2017 23:00:00 8,1 8,1 37 20 - - S -
25.07.2017 22:00:00 8,4 8,4 28 15 - - S -
25.07.2017 21:00:00 8,7 8,7 22 12 - - S -
25.07.2017 20:00:00 8,8 8,7 16 9 - - S -
25.07.2017 19:00:00 8,8 8,5 11 6 - - ESE -
25.07.2017 18:00:00 9,2 8,2 13 7 - - E -
25.07.2017 17:00:00 9,5 6,3 13 7 - - NNW -
25.07.2017 16:00:00 10,1 5,4 8 4 - - WSW -
25.07.2017 15:00:00 9,6 1,9 9 5 - - WNW -
25.07.2017 14:00:00 8,7 5,2 8 4 - - WNW -
25.07.2017 13:00:00 8,1 4,9 5 3 - - S -
25.07.2017 12:00:00 7,9 3,3 5 3 - - E -
25.07.2017 11:00:00 7,6 -1,0 5 3 - - SW -
25.07.2017 10:00:00 7,5 -1,5 2 1 - - W -
25.07.2017 09:00:00 6,9 0,0 5 3 - - SSW -
25.07.2017 08:00:00 7,5 -2,3 4 2 - - NE -
25.07.2017 07:00:00 8,5 -4,7 8 4 - - WNW -
25.07.2017 06:00:00 7,9 3,4 13 7 - - NW -
25.07.2017 05:00:00 7,1 3,9 9 5 - - NNW -
25.07.2017 04:00:00 - - - - - - - -
25.07.2017 03:00:00 7,5 6,8 - - - - - -
25.07.2017 02:00:00 7,1 7,1 11 6 - - NW -
25.07.2017 01:00:00 5,7 5,6 18 10 - - WNW -
25.07.2017 00:00:00 6,4 5,4 26 14 - - NNW -
24.07.2017 23:00:00 6,7 6,6 34 18 - - NNW -
24.07.2017 22:00:00 6,5 5,5 31 17 - - NNW -
24.07.2017 21:00:00 7,0 7,0 29 16 - - NW -
24.07.2017 20:00:00 7,7 7,6 34 18 - - NW -
24.07.2017 19:00:00 8,0 7,6 35 19 48 26 NW -
24.07.2017 18:00:00 8,6 6,5 37 20 52 28 NNW -
24.07.2017 17:00:00 8,9 5,2 41 22 52 28 NW -
24.07.2017 16:00:00 7,9 4,3 37 20 48 26 NNW -
24.07.2017 15:00:00 7,0 3,1 34 18 - - NNW -
24.07.2017 14:00:00 6,6 3,6 29 16 - - NNW -
24.07.2017 13:00:00 5,8 3,4 31 17 - - NNW -
24.07.2017 12:00:00 5,4 4,3 37 20 46 25 NNW -
24.07.2017 11:00:00 7,1 3,5 31 17 48 26 NNW -
24.07.2017 10:00:00 6,4 -0,6 37 20 54 29 NNW -
24.07.2017 09:00:00 4,5 -0,1 41 22 52 28 NNW -
24.07.2017 08:00:00 4,2 0,7 41 22 54 29 NNW -
24.07.2017 07:00:00 4,5 0,2 44 24 52 28 NNW -
24.07.2017 06:00:00 5,1 0,6 46 25 54 29 NNW -
24.07.2017 05:00:00 4,5 3,9 41 22 59 32 NNW -
24.07.2017 04:00:00 5,8 5,8 37 20 46 25 NNW -
24.07.2017 03:00:00 6,0 6,0 41 22 - - NNW -
24.07.2017 02:00:00 5,6 5,5 34 18 46 25 NW -
24.07.2017 01:00:00 4,6 4,6 35 19 - - NNW -
24.07.2017 00:00:00 7,0 6,9 29 16 - - NNW -
23.07.2017 23:00:00 7,4 7,4 34 18 46 25 N -
23.07.2017 22:00:00 7,7 7,7 31 17 - - N -
23.07.2017 21:00:00 7,7 7,6 31 17 - - N -
23.07.2017 20:00:00 7,7 7,7 29 16 - - NNE -
23.07.2017 19:00:00 8,0 8,0 35 19 52 28 NNE -
23.07.2017 18:00:00 8,0 8,0 35 19 54 29 NNE -
23.07.2017 17:00:00 8,0 8,0 39 21 54 29 NNE -
23.07.2017 16:00:00 8,2 8,2 41 22 54 29 NNE -
23.07.2017 15:00:00 8,2 8,2 41 22 59 32 NNE -
23.07.2017 14:00:00 8,8 8,8 44 24 61 33 NNE -
23.07.2017 13:00:00 9,1 9,1 37 20 55 30 NNE -
23.07.2017 12:00:00 9,3 9,3 34 18 48 26 ENE -

tt = temperature
td = dewpoint
ff = wind speed
fx = gusts
dd = wind direction
vv = visibility

Next stations